createdAt,value
2022-08-11T00:02:38.291Z,13.63
2022-08-11T00:07:52.503Z,13.57
2022-08-11T00:12:57.946Z,13.49
2022-08-11T00:18:02.393Z,13.47
2022-08-11T00:23:08.860Z,13.40
2022-08-11T00:28:25.184Z,13.28
2022-08-11T00:33:44.779Z,13.26
2022-08-11T00:38:51.572Z,13.24
2022-08-11T00:44:15.474Z,13.21
2022-08-11T00:49:43.470Z,13.19
2022-08-11T00:55:20.304Z,13.16
2022-08-11T01:00:24.791Z,13.12
2022-08-11T01:05:48.693Z,13.08
2022-08-11T01:11:27.060Z,13.06
2022-08-11T01:17:03.076Z,13.07
2022-08-11T01:22:17.287Z,13.09
2022-08-11T01:27:45.487Z,13.09
2022-08-11T01:33:36.558Z,13.11
2022-08-11T01:39:06.138Z,13.14
2022-08-11T01:44:29.765Z,13.13
2022-08-11T01:50:09.057Z,13.08
2022-08-11T01:55:26.880Z,13.07
2022-08-11T02:00:33.268Z,13.03
2022-08-11T02:06:23.511Z,13.00
2022-08-11T02:11:44.563Z,12.99
2022-08-11T02:17:33.180Z,13.01
2022-08-11T02:24:04.508Z,13.04
2022-08-11T02:29:15.915Z,13.06
2022-08-11T02:34:35.504Z,13.12
2022-08-11T02:39:47.300Z,13.16
2022-08-11T02:45:42.444Z,13.18
2022-08-11T02:51:02.623Z,13.18
2022-08-11T02:56:29.076Z,13.16
2022-08-11T03:01:48.372Z,13.12
2022-08-11T03:06:50.541Z,13.10
2022-08-11T03:12:19.690Z,13.11
2022-08-11T03:17:37.831Z,13.11
2022-08-11T03:23:19.927Z,13.13
2022-08-11T03:28:31.652Z,13.11
2022-08-11T03:34:08.296Z,13.06
2022-08-11T03:39:39.569Z,13.01
2022-08-11T03:45:49.461Z,12.98
2022-08-11T03:51:27.524Z,13.04
2022-08-11T03:57:01.631Z,13.26
2022-08-11T04:02:06.850Z,13.70
2022-08-11T04:07:56.418Z,14.62
2022-08-11T04:13:38.524Z,15.34
2022-08-11T04:18:46.173Z,15.27
2022-08-11T04:24:12.926Z,15.19
2022-08-11T04:30:03.777Z,15.46
2022-08-11T04:35:13.980Z,15.95
2022-08-11T04:40:37.975Z,16.96
2022-08-11T04:45:49.140Z,18.30
2022-08-11T04:51:37.826Z,19.79
2022-08-11T04:57:02.148Z,21.12
2022-08-11T05:02:16.667Z,22.22
2022-08-11T05:07:42.054Z,22.63
2022-08-11T05:13:18.337Z,22.88
2022-08-11T05:18:42.483Z,22.86
2022-08-11T05:24:12.764Z,22.23
2022-08-11T05:29:57.975Z,21.56
2022-08-11T05:35:03.954Z,20.78
2022-08-11T05:40:40.334Z,20.34
2022-08-11T05:46:05.425Z,20.04
2022-08-11T05:51:35.492Z,19.78
2022-08-11T05:56:47.164Z,19.77
2022-08-11T06:01:50.290Z,19.82
2022-08-11T06:07:12.557Z,19.94
2022-08-11T06:17:55.850Z,21.91
2022-08-11T06:23:02.404Z,22.37
2022-08-11T06:28:06.840Z,22.43
2022-08-11T06:33:39.916Z,22.25
2022-08-11T06:38:54.159Z,22.17
2022-08-11T06:44:14.478Z,22.18
2022-08-11T06:49:37.756Z,22.18
2022-08-11T06:54:57.359Z,22.20
2022-08-11T07:00:26.394Z,22.20
2022-08-11T07:05:37.601Z,22.49
2022-08-11T07:11:32.210Z,22.71
2022-08-11T07:16:35.474Z,22.96
2022-08-11T07:22:03.770Z,23.38
2022-08-11T07:27:35.070Z,24.11
2022-08-11T07:32:49.855Z,24.80
2022-08-11T07:38:01.934Z,25.41
2022-08-11T07:43:07.144Z,25.86
2022-08-11T07:48:29.685Z,26.15
2022-08-11T07:53:33.825Z,26.19
2022-08-11T07:59:14.577Z,25.99
2022-08-11T08:04:38.341Z,25.84
2022-08-11T08:10:09.213Z,25.68
2022-08-11T08:15:37.135Z,25.85
2022-08-11T08:20:50.085Z,26.22
2022-08-11T08:25:53.004Z,26.72
2022-08-11T08:30:56.437Z,27.21
2022-08-11T08:36:13.009Z,27.55
2022-08-11T08:41:22.366Z,27.60
2022-08-11T08:46:50.538Z,28.22
2022-08-11T08:52:42.682Z,28.82
2022-08-11T08:57:39.317Z,29.32
2022-08-11T09:02:44.153Z,29.06
2022-08-11T09:07:51.265Z,28.29
2022-08-11T09:12:53.841Z,27.33
2022-08-11T09:18:06.175Z,27.16
2022-08-11T09:28:50.640Z,26.47
2022-08-11T09:33:55.210Z,25.94
2022-08-11T09:39:18.737Z,26.08
2022-08-11T09:44:53.116Z,26.55
2022-08-11T09:50:01.443Z,27.44
2022-08-11T09:55:11.414Z,27.96
2022-08-11T10:00:15.480Z,27.57
2022-08-11T10:05:39.838Z,27.22
2022-08-11T10:10:42.450Z,27.16
2022-08-11T10:16:02.370Z,27.45
2022-08-11T10:21:15.705Z,27.39
2022-08-11T10:26:41.986Z,26.98
2022-08-11T10:32:04.634Z,26.82
2022-08-11T10:37:08.915Z,26.92
2022-08-11T10:42:57.455Z,26.88
2022-08-11T10:47:59.461Z,27.25
2022-08-11T10:53:21.410Z,28.13
2022-08-11T10:58:42.993Z,28.60
2022-08-11T11:03:45.810Z,28.31
2022-08-11T11:08:57.661Z,27.68
2022-08-11T11:14:19.884Z,26.92
2022-08-11T11:19:25.288Z,26.51
2022-08-11T11:24:59.547Z,26.59
2022-08-11T11:30:07.483Z,26.60
2022-08-11T11:35:26.864Z,26.99
2022-08-11T11:40:31.960Z,27.60
2022-08-11T11:45:35.126Z,28.22
2022-08-11T11:50:38.160Z,29.58
2022-08-11T11:55:59.105Z,29.63
2022-08-11T12:01:17.031Z,28.58
2022-08-11T12:06:22.520Z,27.45
2022-08-11T12:11:44.169Z,27.11
2022-08-11T12:16:48.273Z,27.17
2022-08-11T12:22:13.349Z,27.95
2022-08-11T12:27:25.445Z,28.31
2022-08-11T12:32:31.070Z,27.58
2022-08-11T12:37:39.323Z,26.86
2022-08-11T12:43:01.993Z,26.60
2022-08-11T12:49:00.047Z,27.39
2022-08-11T12:54:02.625Z,27.67
2022-08-11T12:59:24.965Z,27.74
2022-08-11T13:04:48.486Z,27.94
2022-08-11T13:09:55.240Z,28.72
2022-08-11T13:14:59.699Z,29.29
2022-08-11T13:20:03.049Z,28.60
2022-08-11T13:25:07.831Z,27.84
2022-08-11T13:30:40.365Z,27.51
2022-08-11T13:35:49.738Z,27.42
2022-08-11T13:40:56.222Z,27.46
2022-08-11T13:46:19.051Z,27.61
2022-08-11T13:51:34.724Z,27.91
2022-08-11T13:56:40.059Z,28.22
2022-08-11T14:02:22.792Z,28.64
2022-08-11T14:07:11.795Z,29.01
2022-08-11T14:12:39.842Z,29.56
2022-08-11T14:17:48.070Z,30.27
2022-08-11T14:22:52.731Z,30.97
2022-08-11T14:28:31.781Z,30.75
2022-08-11T14:33:38.168Z,29.45
2022-08-11T14:39:08.608Z,28.04
2022-08-11T14:44:29.994Z,26.49
2022-08-11T14:49:37.590Z,24.79
2022-08-11T14:55:17.451Z,22.87
2022-08-11T15:00:19.633Z,20.68
2022-08-11T15:05:23.317Z,19.34
2022-08-11T15:10:32.055Z,18.31
2022-08-11T15:15:54.656Z,17.61
2022-08-11T15:21:36.590Z,17.24
2022-08-11T15:27:12.813Z,17.00
2022-08-11T15:32:20.566Z,16.84
2022-08-11T15:37:31.661Z,16.75
2022-08-11T15:42:59.417Z,16.72
2022-08-11T15:48:08.472Z,16.97
2022-08-11T15:53:24.438Z,17.17
2022-08-11T15:59:40.597Z,17.39
2022-08-11T16:04:21.476Z,17.55
2022-08-11T16:09:47.529Z,17.62
2022-08-11T16:15:29.555Z,17.56
2022-08-11T16:20:46.165Z,17.35
2022-08-11T16:25:58.165Z,17.36
2022-08-11T16:31:13.063Z,17.50
2022-08-11T16:36:35.086Z,17.69
2022-08-11T16:41:59.432Z,18.12
2022-08-11T16:47:03.576Z,19.69
2022-08-11T16:52:12.159Z,21.39
2022-08-11T16:57:41.194Z,22.07
2022-08-11T17:03:09.721Z,22.56
2022-08-11T17:08:31.093Z,23.36
2022-08-11T17:13:42.558Z,23.91
2022-08-11T17:18:59.668Z,24.29
2022-08-11T17:24:14.601Z,23.88
2022-08-11T17:29:53.933Z,22.75
2022-08-11T17:35:20.302Z,21.65
2022-08-11T17:40:24.775Z,21.50
2022-08-11T17:45:46.258Z,21.31
2022-08-11T17:50:50.057Z,20.84
2022-08-11T17:56:11.845Z,20.28
2022-08-11T18:01:14.811Z,19.59
2022-08-11T18:06:18.726Z,18.97
2022-08-11T18:12:11.953Z,18.40
2022-08-11T18:17:22.132Z,17.84
2022-08-11T18:22:48.447Z,17.48
2022-08-11T18:28:13.214Z,17.18
2022-08-11T18:34:06.001Z,16.90
2022-08-11T18:39:21.588Z,16.67
2022-08-11T18:44:47.642Z,16.49
2022-08-11T18:50:14.510Z,16.30
2022-08-11T18:55:43.037Z,16.09
2022-08-11T19:01:06.172Z,15.92
2022-08-11T19:06:41.586Z,15.80
2022-08-11T19:12:17.822Z,15.69
2022-08-11T19:17:43.479Z,15.56
2022-08-11T19:23:08.317Z,15.51
2022-08-11T19:28:29.199Z,15.52
2022-08-11T19:34:03.206Z,15.48
2022-08-11T19:39:33.333Z,15.41
2022-08-11T19:44:54.429Z,15.34
2022-08-11T19:50:21.533Z,15.29
2022-08-11T19:55:48.164Z,15.25
2022-08-11T20:01:09.520Z,15.23
2022-08-11T20:06:41.433Z,15.16
2022-08-11T20:12:14.578Z,15.03
2022-08-11T20:17:52.576Z,14.97
2022-08-11T20:23:16.153Z,15.00
2022-08-11T20:28:38.643Z,14.96
2022-08-11T20:34:01.845Z,14.90
2022-08-11T20:39:23.041Z,14.81
2022-08-11T20:44:44.578Z,14.70
2022-08-11T20:50:06.539Z,14.65
2022-08-11T20:55:51.491Z,14.66
2022-08-11T21:01:20.546Z,14.61
2022-08-11T21:06:53.039Z,14.58
2022-08-11T21:12:17.260Z,14.56
2022-08-11T21:17:42.909Z,14.52
2022-08-11T21:23:27.613Z,14.49
2022-08-11T21:28:52.344Z,14.41
2022-08-11T21:34:15.364Z,14.36
2022-08-11T21:39:39.087Z,14.28
2022-08-11T21:45:02.251Z,14.20
2022-08-11T21:50:23.714Z,14.10
2022-08-11T21:55:45.721Z,13.99
2022-08-11T22:01:06.810Z,13.91
2022-08-11T22:06:27.456Z,13.88
2022-08-11T22:11:48.690Z,13.84
2022-08-11T22:17:29.201Z,13.79
2022-08-11T22:22:52.779Z,13.73
2022-08-11T22:28:14.902Z,13.68
2022-08-11T22:33:37.686Z,13.69
2022-08-11T22:39:20.215Z,13.69
2022-08-11T22:44:41.051Z,13.65
2022-08-11T22:50:03.359Z,13.59
2022-08-11T22:55:32.140Z,13.54
2022-08-11T23:00:52.709Z,13.50
2022-08-11T23:06:15.170Z,13.46
2022-08-11T23:12:06.355Z,13.43
2022-08-11T23:17:17.440Z,13.38
2022-08-11T23:22:50.027Z,13.30
2022-08-11T23:28:12.449Z,13.23
2022-08-11T23:33:36.638Z,13.18
2022-08-11T23:38:57.154Z,13.13
2022-08-11T23:44:22.932Z,13.08
2022-08-11T23:49:44.390Z,12.98
2022-08-11T23:55:04.911Z,12.88
